sensor_id;sensor_type;location;lat;lon;timestamp;temperature;humidity
20700;DHT22;10511;51.232;9.420;2023-07-09T00:00:39;20.70;99.90
20700;DHT22;10511;51.232;9.420;2023-07-09T00:03:09;20.70;99.90
20700;DHT22;10511;51.232;9.420;2023-07-09T00:05:37;20.90;99.90
20700;DHT22;10511;51.232;9.420;2023-07-09T00:08:04;21.40;99.90
20700;DHT22;10511;51.232;9.420;2023-07-09T00:10:31;21.20;99.90
20700;DHT22;10511;51.232;9.420;2023-07-09T00:12:59;21.20;99.90
20700;DHT22;10511;51.232;9.420;2023-07-09T00:15:27;21.10;99.90
20700;DHT22;10511;51.232;9.420;2023-07-09T00:17:55;20.70;99.90
20700;DHT22;10511;51.232;9.420;2023-07-09T00:20:22;20.70;99.90
20700;DHT22;10511;51.232;9.420;2023-07-09T00:22:49;20.80;99.90
20700;DHT22;10511;51.232;9.420;2023-07-09T00:25:19;20.70;99.90
20700;DHT22;10511;51.232;9.420;2023-07-09T00:27:46;20.80;99.90
20700;DHT22;10511;51.232;9.420;2023-07-09T00:30:17;20.70;99.90
20700;DHT22;10511;51.232;9.420;2023-07-09T00:32:44;20.50;99.90
20700;DHT22;10511;51.232;9.420;2023-07-09T00:35:13;20.50;99.90
20700;DHT22;10511;51.232;9.420;2023-07-09T00:37:41;20.30;99.90
20700;DHT22;10511;51.232;9.420;2023-07-09T00:40:14;20.40;99.90
20700;DHT22;10511;51.232;9.420;2023-07-09T00:42:45;20.40;99.90
20700;DHT22;10511;51.232;9.420;2023-07-09T00:45:22;20.40;99.90
20700;DHT22;10511;51.232;9.420;2023-07-09T00:47:53;20.40;99.90
20700;DHT22;10511;51.232;9.420;2023-07-09T00:50:37;20.30;99.90
20700;DHT22;10511;51.232;9.420;2023-07-09T00:53:13;20.20;99.90
20700;DHT22;10511;51.232;9.420;2023-07-09T00:55:45;20.20;99.90
20700;DHT22;10511;51.232;9.420;2023-07-09T00:58:15;20.30;99.90
20700;DHT22;10511;51.232;9.420;2023-07-09T01:00:44;20.30;99.90
20700;DHT22;10511;51.232;9.420;2023-07-09T01:03:18;20.20;99.90
20700;DHT22;10511;51.232;9.420;2023-07-09T01:05:48;20.20;99.90
20700;DHT22;10511;51.232;9.420;2023-07-09T01:08:18;20.20;99.90
20700;DHT22;10511;51.232;9.420;2023-07-09T01:10:45;20.00;99.90
20700;DHT22;10511;51.232;9.420;2023-07-09T01:13:12;19.80;99.90
20700;DHT22;10511;51.232;9.420;2023-07-09T01:15:40;19.90;99.90
20700;DHT22;10511;51.232;9.420;2023-07-09T01:18:07;20.00;99.90
20700;DHT22;10511;51.232;9.420;2023-07-09T01:20:37;20.20;99.90
20700;DHT22;10511;51.232;9.420;2023-07-09T01:23:06;20.20;99.90
20700;DHT22;10511;51.232;9.420;2023-07-09T01:25:33;20.20;99.90
20700;DHT22;10511;51.232;9.420;2023-07-09T01:28:02;19.90;99.90
20700;DHT22;10511;51.232;9.420;2023-07-09T01:30:32;19.80;99.90
20700;DHT22;10511;51.232;9.420;2023-07-09T01:33:00;19.80;99.90
20700;DHT22;10511;51.232;9.420;2023-07-09T01:35:29;19.70;99.90
20700;DHT22;10511;51.232;9.420;2023-07-09T01:37:57;19.80;99.90
20700;DHT22;10511;51.232;9.420;2023-07-09T01:40:26;19.80;99.90
20700;DHT22;10511;51.232;9.420;2023-07-09T01:42:55;19.90;99.90
20700;DHT22;10511;51.232;9.420;2023-07-09T01:45:24;19.90;99.90
20700;DHT22;10511;51.232;9.420;2023-07-09T01:47:51;19.70;99.90
20700;DHT22;10511;51.232;9.420;2023-07-09T01:50:19;19.90;99.90
20700;DHT22;10511;51.232;9.420;2023-07-09T01:52:46;20.30;99.90
20700;DHT22;10511;51.232;9.420;2023-07-09T01:55:15;20.30;99.90
20700;DHT22;10511;51.232;9.420;2023-07-09T01:57:44;20.20;99.90
20700;DHT22;10511;51.232;9.420;2023-07-09T02:00:13;19.90;99.90
20700;DHT22;10511;51.232;9.420;2023-07-09T02:02:41;19.90;99.90
20700;DHT22;10511;51.232;9.420;2023-07-09T02:05:10;19.70;99.90
20700;DHT22;10511;51.232;9.420;2023-07-09T02:07:37;19.40;99.90
20700;DHT22;10511;51.232;9.420;2023-07-09T02:10:05;19.40;99.90
20700;DHT22;10511;51.232;9.420;2023-07-09T02:12:32;19.50;99.90
20700;DHT22;10511;51.232;9.420;2023-07-09T02:15:01;19.50;99.90
20700;DHT22;10511;51.232;9.420;2023-07-09T02:17:28;19.60;99.90
20700;DHT22;10511;51.232;9.420;2023-07-09T02:19:54;19.70;99.90
20700;DHT22;10511;51.232;9.420;2023-07-09T02:22:21;19.60;99.90
20700;DHT22;10511;51.232;9.420;2023-07-09T02:24:48;19.60;99.90
20700;DHT22;10511;51.232;9.420;2023-07-09T02:27:20;19.70;99.90
20700;DHT22;10511;51.232;9.420;2023-07-09T02:29:47;19.80;99.90
20700;DHT22;10511;51.232;9.420;2023-07-09T02:32:19;19.90;99.90
20700;DHT22;10511;51.232;9.420;2023-07-09T02:34:46;20.30;99.90
20700;DHT22;10511;51.232;9.420;2023-07-09T02:37:15;20.40;99.90
20700;DHT22;10511;51.232;9.420;2023-07-09T02:39:43;20.50;99.90
20700;DHT22;10511;51.232;9.420;2023-07-09T02:42:11;20.50;99.90
20700;DHT22;10511;51.232;9.420;2023-07-09T02:44:39;20.50;99.90
20700;DHT22;10511;51.232;9.420;2023-07-09T02:47:06;20.30;99.90
20700;DHT22;10511;51.232;9.420;2023-07-09T02:49:35;20.20;99.90
20700;DHT22;10511;51.232;9.420;2023-07-09T02:52:02;20.10;99.90
20700;DHT22;10511;51.232;9.420;2023-07-09T02:54:29;20.00;99.90
20700;DHT22;10511;51.232;9.420;2023-07-09T02:56:56;19.90;99.90
20700;DHT22;10511;51.232;9.420;2023-07-09T02:59:23;19.80;99.90
20700;DHT22;10511;51.232;9.420;2023-07-09T03:01:52;19.60;99.90
20700;DHT22;10511;51.232;9.420;2023-07-09T03:04:19;19.30;99.90
20700;DHT22;10511;51.232;9.420;2023-07-09T03:06:48;19.10;99.90
20700;DHT22;10511;51.232;9.420;2023-07-09T03:09:18;18.90;99.90
20700;DHT22;10511;51.232;9.420;2023-07-09T03:11:45;18.70;99.90
20700;DHT22;10511;51.232;9.420;2023-07-09T03:14:13;18.70;99.90
20700;DHT22;10511;51.232;9.420;2023-07-09T03:16:40;18.80;99.90
20700;DHT22;10511;51.232;9.420;2023-07-09T03:19:07;18.90;99.90
20700;DHT22;10511;51.232;9.420;2023-07-09T03:21:34;19.30;99.90
20700;DHT22;10511;51.232;9.420;2023-07-09T03:24:03;19.40;99.90
20700;DHT22;10511;51.232;9.420;2023-07-09T03:26:30;19.40;99.90
20700;DHT22;10511;51.232;9.420;2023-07-09T03:28:57;19.50;99.90
20700;DHT22;10511;51.232;9.420;2023-07-09T03:31:23;19.70;99.90
20700;DHT22;10511;51.232;9.420;2023-07-09T03:33:51;19.60;99.90
20700;DHT22;10511;51.232;9.420;2023-07-09T03:36:18;19.70;99.90
20700;DHT22;10511;51.232;9.420;2023-07-09T03:38:46;19.60;99.90
20700;DHT22;10511;51.232;9.420;2023-07-09T03:41:14;19.40;99.90
20700;DHT22;10511;51.232;9.420;2023-07-09T03:43:41;19.30;99.90
20700;DHT22;10511;51.232;9.420;2023-07-09T03:46:08;19.20;99.90
20700;DHT22;10511;51.232;9.420;2023-07-09T03:48:35;19.10;99.90
20700;DHT22;10511;51.232;9.420;2023-07-09T03:51:02;19.10;99.90
20700;DHT22;10511;51.232;9.420;2023-07-09T03:53:28;19.10;99.90
20700;DHT22;10511;51.232;9.420;2023-07-09T03:55:56;18.80;99.90
20700;DHT22;10511;51.232;9.420;2023-07-09T03:58:26;18.50;99.90
20700;DHT22;10511;51.232;9.420;2023-07-09T04:00:53;18.10;99.90
20700;DHT22;10511;51.232;9.420;2023-07-09T04:03:21;17.90;99.90
20700;DHT22;10511;51.232;9.420;2023-07-09T04:05:48;17.70;99.90
20700;DHT22;10511;51.232;9.420;2023-07-09T04:08:15;17.50;99.90
20700;DHT22;10511;51.232;9.420;2023-07-09T04:10:43;17.60;99.90
20700;DHT22;10511;51.232;9.420;2023-07-09T04:13:10;17.70;99.90
20700;DHT22;10511;51.232;9.420;2023-07-09T04:15:38;17.80;99.90
20700;DHT22;10511;51.232;9.420;2023-07-09T04:18:05;17.90;99.90
20700;DHT22;10511;51.232;9.420;2023-07-09T04:20:32;17.80;99.90
20700;DHT22;10511;51.232;9.420;2023-07-09T04:23:00;17.70;99.90
20700;DHT22;10511;51.232;9.420;2023-07-09T04:25:27;17.80;99.90
20700;DHT22;10511;51.232;9.420;2023-07-09T04:27:54;17.90;99.90
20700;DHT22;10511;51.232;9.420;2023-07-09T04:30:21;18.00;99.90
20700;DHT22;10511;51.232;9.420;2023-07-09T04:32:49;18.00;99.90
20700;DHT22;10511;51.232;9.420;2023-07-09T04:35:16;18.20;99.90
20700;DHT22;10511;51.232;9.420;2023-07-09T04:37:43;18.40;99.90
20700;DHT22;10511;51.232;9.420;2023-07-09T04:40:12;18.50;99.90
20700;DHT22;10511;51.232;9.420;2023-07-09T04:42:39;18.60;99.90
20700;DHT22;10511;51.232;9.420;2023-07-09T04:45:09;18.60;99.90
20700;DHT22;10511;51.232;9.420;2023-07-09T04:47:36;18.80;99.90
20700;DHT22;10511;51.232;9.420;2023-07-09T04:50:06;19.00;99.90
20700;DHT22;10511;51.232;9.420;2023-07-09T04:52:34;19.10;99.90
20700;DHT22;10511;51.232;9.420;2023-07-09T04:55:01;19.30;99.90
20700;DHT22;10511;51.232;9.420;2023-07-09T04:57:28;19.50;99.90
20700;DHT22;10511;51.232;9.420;2023-07-09T04:59:55;19.50;99.90
20700;DHT22;10511;51.232;9.420;2023-07-09T05:02:23;19.50;99.90
20700;DHT22;10511;51.232;9.420;2023-07-09T05:04:50;19.50;99.90
20700;DHT22;10511;51.232;9.420;2023-07-09T05:07:19;19.60;99.90
20700;DHT22;10511;51.232;9.420;2023-07-09T05:09:46;19.70;99.90
20700;DHT22;10511;51.232;9.420;2023-07-09T05:12:13;19.60;99.90
20700;DHT22;10511;51.232;9.420;2023-07-09T05:14:40;19.50;99.90
20700;DHT22;10511;51.232;9.420;2023-07-09T05:17:07;19.60;99.90
20700;DHT22;10511;51.232;9.420;2023-07-09T05:19:35;19.70;99.90
20700;DHT22;10511;51.232;9.420;2023-07-09T05:22:02;19.70;99.90
20700;DHT22;10511;51.232;9.420;2023-07-09T05:24:30;19.60;99.90
20700;DHT22;10511;51.232;9.420;2023-07-09T05:26:57;19.60;99.90
20700;DHT22;10511;51.232;9.420;2023-07-09T05:29:25;19.70;99.90
20700;DHT22;10511;51.232;9.420;2023-07-09T05:31:52;19.70;99.90
20700;DHT22;10511;51.232;9.420;2023-07-09T05:34:19;19.70;99.90
20700;DHT22;10511;51.232;9.420;2023-07-09T05:36:47;19.70;99.90
20700;DHT22;10511;51.232;9.420;2023-07-09T05:39:14;19.70;99.90
20700;DHT22;10511;51.232;9.420;2023-07-09T05:41:43;19.70;99.90
20700;DHT22;10511;51.232;9.420;2023-07-09T05:44:10;19.80;99.90
20700;DHT22;10511;51.232;9.420;2023-07-09T05:46:37;19.80;99.90
20700;DHT22;10511;51.232;9.420;2023-07-09T05:49:05;19.90;99.90
20700;DHT22;10511;51.232;9.420;2023-07-09T05:51:32;19.90;99.90
20700;DHT22;10511;51.232;9.420;2023-07-09T05:53:59;20.00;99.90
20700;DHT22;10511;51.232;9.420;2023-07-09T05:56:26;19.90;99.90
20700;DHT22;10511;51.232;9.420;2023-07-09T05:58:55;20.00;99.90
20700;DHT22;10511;51.232;9.420;2023-07-09T06:01:23;20.10;99.90
20700;DHT22;10511;51.232;9.420;2023-07-09T06:03:51;20.10;99.90
20700;DHT22;10511;51.232;9.420;2023-07-09T06:06:18;20.20;99.90
20700;DHT22;10511;51.232;9.420;2023-07-09T06:08:45;20.20;99.90
20700;DHT22;10511;51.232;9.420;2023-07-09T06:11:12;20.20;99.90
20700;DHT22;10511;51.232;9.420;2023-07-09T06:13:39;20.30;99.90
20700;DHT22;10511;51.232;9.420;2023-07-09T06:16:07;20.40;99.90
20700;DHT22;10511;51.232;9.420;2023-07-09T06:18:35;20.40;99.90
20700;DHT22;10511;51.232;9.420;2023-07-09T06:21:02;20.50;99.90
20700;DHT22;10511;51.232;9.420;2023-07-09T06:23:30;20.50;99.90
20700;DHT22;10511;51.232;9.420;2023-07-09T06:25:57;20.50;99.90
20700;DHT22;10511;51.232;9.420;2023-07-09T06:28:25;20.60;99.90
20700;DHT22;10511;51.232;9.420;2023-07-09T06:30:54;20.70;99.90
20700;DHT22;10511;51.232;9.420;2023-07-09T06:33:23;20.80;99.90
20700;DHT22;10511;51.232;9.420;2023-07-09T06:35:52;21.00;99.90
20700;DHT22;10511;51.232;9.420;2023-07-09T06:38:19;21.10;99.90
20700;DHT22;10511;51.232;9.420;2023-07-09T06:40:47;21.10;99.90
20700;DHT22;10511;51.232;9.420;2023-07-09T06:43:14;21.10;99.90
20700;DHT22;10511;51.232;9.420;2023-07-09T06:45:48;21.30;99.90
20700;DHT22;10511;51.232;9.420;2023-07-09T06:48:15;21.30;99.90
20700;DHT22;10511;51.232;9.420;2023-07-09T06:50:44;21.40;99.90
20700;DHT22;10511;51.232;9.420;2023-07-09T06:53:11;21.40;99.90
20700;DHT22;10511;51.232;9.420;2023-07-09T06:55:38;21.50;99.90
20700;DHT22;10511;51.232;9.420;2023-07-09T06:58:04;21.50;99.90
20700;DHT22;10511;51.232;9.420;2023-07-09T07:00:33;21.60;99.90
20700;DHT22;10511;51.232;9.420;2023-07-09T07:03:00;21.70;99.90
20700;DHT22;10511;51.232;9.420;2023-07-09T07:05:27;21.70;99.90
20700;DHT22;10511;51.232;9.420;2023-07-09T07:07:56;21.80;99.90
20700;DHT22;10511;51.232;9.420;2023-07-09T07:10:23;21.90;99.90
20700;DHT22;10511;51.232;9.420;2023-07-09T07:12:49;22.00;99.90
20700;DHT22;10511;51.232;9.420;2023-07-09T07:15:17;22.10;99.90
20700;DHT22;10511;51.232;9.420;2023-07-09T07:17:44;22.10;99.90
20700;DHT22;10511;51.232;9.420;2023-07-09T07:20:13;22.20;99.90
20700;DHT22;10511;51.232;9.420;2023-07-09T07:22:41;22.30;99.90
20700;DHT22;10511;51.232;9.420;2023-07-09T07:25:09;22.40;99.90
20700;DHT22;10511;51.232;9.420;2023-07-09T07:27:37;22.50;99.90
20700;DHT22;10511;51.232;9.420;2023-07-09T07:30:05;22.60;99.90
20700;DHT22;10511;51.232;9.420;2023-07-09T07:32:35;22.70;99.90
20700;DHT22;10511;51.232;9.420;2023-07-09T07:35:03;22.80;99.90
20700;DHT22;10511;51.232;9.420;2023-07-09T07:37:30;22.90;99.90
20700;DHT22;10511;51.232;9.420;2023-07-09T07:39:57;23.00;99.90
20700;DHT22;10511;51.232;9.420;2023-07-09T07:42:25;23.10;99.90
20700;DHT22;10511;51.232;9.420;2023-07-09T07:44:52;23.20;99.90
20700;DHT22;10511;51.232;9.420;2023-07-09T07:47:19;23.30;99.90
20700;DHT22;10511;51.232;9.420;2023-07-09T07:49:46;23.40;99.90
20700;DHT22;10511;51.232;9.420;2023-07-09T07:52:13;23.50;99.90
20700;DHT22;10511;51.232;9.420;2023-07-09T07:54:39;23.60;99.90
20700;DHT22;10511;51.232;9.420;2023-07-09T07:57:07;23.70;99.90
20700;DHT22;10511;51.232;9.420;2023-07-09T07:59:36;23.80;99.90
20700;DHT22;10511;51.232;9.420;2023-07-09T08:02:04;23.90;99.90
20700;DHT22;10511;51.232;9.420;2023-07-09T08:04:31;23.90;99.90
20700;DHT22;10511;51.232;9.420;2023-07-09T08:06:58;23.90;99.90
20700;DHT22;10511;51.232;9.420;2023-07-09T08:09:26;24.00;99.90
20700;DHT22;10511;51.232;9.420;2023-07-09T08:11:53;24.10;99.90
20700;DHT22;10511;51.232;9.420;2023-07-09T08:14:20;24.30;99.90
20700;DHT22;10511;51.232;9.420;2023-07-09T08:16:58;24.40;99.90
20700;DHT22;10511;51.232;9.420;2023-07-09T08:19:44;24.50;99.90
20700;DHT22;10511;51.232;9.420;2023-07-09T08:22:11;24.50;99.90
20700;DHT22;10511;51.232;9.420;2023-07-09T08:24:38;24.70;99.90
20700;DHT22;10511;51.232;9.420;2023-07-09T08:27:06;24.70;99.90
20700;DHT22;10511;51.232;9.420;2023-07-09T08:29:33;24.80;99.90
20700;DHT22;10511;51.232;9.420;2023-07-09T08:32:02;24.90;99.90
20700;DHT22;10511;51.232;9.420;2023-07-09T08:34:29;24.90;99.90
20700;DHT22;10511;51.232;9.420;2023-07-09T08:36:56;25.00;99.90
20700;DHT22;10511;51.232;9.420;2023-07-09T08:39:23;25.20;99.90
20700;DHT22;10511;51.232;9.420;2023-07-09T08:41:55;25.40;99.90
20700;DHT22;10511;51.232;9.420;2023-07-09T08:44:53;25.40;99.90
20700;DHT22;10511;51.232;9.420;2023-07-09T08:47:29;25.50;99.90
20700;DHT22;10511;51.232;9.420;2023-07-09T08:50:02;25.60;99.90
20700;DHT22;10511;51.232;9.420;2023-07-09T08:52:33;25.60;99.90
20700;DHT22;10511;51.232;9.420;2023-07-09T08:55:07;25.70;99.90
20700;DHT22;10511;51.232;9.420;2023-07-09T08:57:38;25.90;99.90
20700;DHT22;10511;51.232;9.420;2023-07-09T09:00:13;26.00;99.90
20700;DHT22;10511;51.232;9.420;2023-07-09T09:02:47;26.20;99.90
20700;DHT22;10511;51.232;9.420;2023-07-09T09:05:19;26.40;99.90
20700;DHT22;10511;51.232;9.420;2023-07-09T09:07:51;26.50;99.90
20700;DHT22;10511;51.232;9.420;2023-07-09T09:10:29;26.60;99.90
20700;DHT22;10511;51.232;9.420;2023-07-09T09:13:05;26.70;99.90
20700;DHT22;10511;51.232;9.420;2023-07-09T09:15:32;26.90;99.90
20700;DHT22;10511;51.232;9.420;2023-07-09T09:18:18;27.00;99.90
20700;DHT22;10511;51.232;9.420;2023-07-09T09:20:48;27.20;99.90
20700;DHT22;10511;51.232;9.420;2023-07-09T09:23:18;27.20;99.90
20700;DHT22;10511;51.232;9.420;2023-07-09T09:25:50;27.20;99.90
20700;DHT22;10511;51.232;9.420;2023-07-09T09:28:18;27.30;99.90
20700;DHT22;10511;51.232;9.420;2023-07-09T09:30:45;27.40;99.90
20700;DHT22;10511;51.232;9.420;2023-07-09T09:33:17;27.50;99.90
20700;DHT22;10511;51.232;9.420;2023-07-09T09:35:45;27.60;99.90
20700;DHT22;10511;51.232;9.420;2023-07-09T09:38:16;27.60;99.90
20700;DHT22;10511;51.232;9.420;2023-07-09T09:40:43;27.70;99.90
20700;DHT22;10511;51.232;9.420;2023-07-09T09:43:13;27.70;99.90
20700;DHT22;10511;51.232;9.420;2023-07-09T09:45:43;27.70;99.90
20700;DHT22;10511;51.232;9.420;2023-07-09T09:48:16;27.80;99.90
20700;DHT22;10511;51.232;9.420;2023-07-09T09:50:44;27.90;99.90
20700;DHT22;10511;51.232;9.420;2023-07-09T09:53:19;28.00;99.90
20700;DHT22;10511;51.232;9.420;2023-07-09T09:55:48;28.10;99.90
20700;DHT22;10511;51.232;9.420;2023-07-09T09:58:17;28.40;99.50
20700;DHT22;10511;51.232;9.420;2023-07-09T10:00:48;28.50;99.70
20700;DHT22;10511;51.232;9.420;2023-07-09T10:03:18;28.60;99.50
20700;DHT22;10511;51.232;9.420;2023-07-09T10:05:50;28.70;98.50
20700;DHT22;10511;51.232;9.420;2023-07-09T10:08:26;28.80;98.90
20700;DHT22;10511;51.232;9.420;2023-07-09T10:11:03;28.90;98.20
20700;DHT22;10511;51.232;9.420;2023-07-09T10:13:37;28.90;98.30
20700;DHT22;10511;51.232;9.420;2023-07-09T10:16:09;29.00;98.50
20700;DHT22;10511;51.232;9.420;2023-07-09T10:18:46;29.10;99.20
20700;DHT22;10511;51.232;9.420;2023-07-09T10:21:23;29.30;98.50
20700;DHT22;10511;51.232;9.420;2023-07-09T10:23:58;29.40;97.50
20700;DHT22;10511;51.232;9.420;2023-07-09T10:26:34;29.50;97.70
20700;DHT22;10511;51.232;9.420;2023-07-09T10:32:01;29.70;97.10
20700;DHT22;10511;51.232;9.420;2023-07-09T10:34:34;29.90;96.30
20700;DHT22;10511;51.232;9.420;2023-07-09T10:37:20;30.00;98.90
20700;DHT22;10511;51.232;9.420;2023-07-09T10:39:50;30.10;96.80
20700;DHT22;10511;51.232;9.420;2023-07-09T10:42:22;30.20;95.90
20700;DHT22;10511;51.232;9.420;2023-07-09T10:44:56;30.20;96.20
20700;DHT22;10511;51.232;9.420;2023-07-09T10:47:30;30.30;96.10
20700;DHT22;10511;51.232;9.420;2023-07-09T10:50:00;30.50;94.90
20700;DHT22;10511;51.232;9.420;2023-07-09T10:52:30;30.60;95.40
20700;DHT22;10511;51.232;9.420;2023-07-09T10:55:02;30.80;96.60
20700;DHT22;10511;51.232;9.420;2023-07-09T10:57:34;30.90;95.00
20700;DHT22;10511;51.232;9.420;2023-07-09T11:00:03;30.90;94.80
20700;DHT22;10511;51.232;9.420;2023-07-09T11:02:34;31.00;94.30
20700;DHT22;10511;51.232;9.420;2023-07-09T11:05:05;31.10;95.80
20700;DHT22;10511;51.232;9.420;2023-07-09T11:07:35;31.30;95.60
20700;DHT22;10511;51.232;9.420;2023-07-09T11:10:07;31.40;93.80
20700;DHT22;10511;51.232;9.420;2023-07-09T11:12:38;31.40;93.00
20700;DHT22;10511;51.232;9.420;2023-07-09T11:15:11;31.30;93.30
20700;DHT22;10511;51.232;9.420;2023-07-09T11:17:41;31.30;93.80
20700;DHT22;10511;51.232;9.420;2023-07-09T11:20:20;31.30;92.10
20700;DHT22;10511;51.232;9.420;2023-07-09T11:22:53;31.30;94.50
20700;DHT22;10511;51.232;9.420;2023-07-09T11:25:29;31.60;94.80
20700;DHT22;10511;51.232;9.420;2023-07-09T11:28:03;31.80;93.60
20700;DHT22;10511;51.232;9.420;2023-07-09T11:30:31;31.80;91.60
20700;DHT22;10511;51.232;9.420;2023-07-09T11:32:59;31.60;91.00
20700;DHT22;10511;51.232;9.420;2023-07-09T11:35:42;31.70;90.60
20700;DHT22;10511;51.232;9.420;2023-07-09T11:38:17;31.80;90.90
20700;DHT22;10511;51.232;9.420;2023-07-09T11:40:48;31.70;91.00
20700;DHT22;10511;51.232;9.420;2023-07-09T11:43:33;31.80;90.80
20700;DHT22;10511;51.232;9.420;2023-07-09T11:46:07;32.00;90.60
20700;DHT22;10511;51.232;9.420;2023-07-09T11:48:37;32.10;91.60
20700;DHT22;10511;51.232;9.420;2023-07-09T11:51:10;32.30;93.90
20700;DHT22;10511;51.232;9.420;2023-07-09T11:53:43;32.60;92.20
20700;DHT22;10511;51.232;9.420;2023-07-09T11:56:12;32.80;89.50
20700;DHT22;10511;51.232;9.420;2023-07-09T11:58:48;32.90;89.30
20700;DHT22;10511;51.232;9.420;2023-07-09T12:01:19;33.10;91.80
20700;DHT22;10511;51.232;9.420;2023-07-09T12:03:48;33.10;89.00
20700;DHT22;10511;51.232;9.420;2023-07-09T12:06:21;33.00;88.20
20700;DHT22;10511;51.232;9.420;2023-07-09T12:08:50;32.90;90.20
20700;DHT22;10511;51.232;9.420;2023-07-09T12:11:22;33.00;91.20
20700;DHT22;10511;51.232;9.420;2023-07-09T12:13:50;33.00;87.90
20700;DHT22;10511;51.232;9.420;2023-07-09T12:16:22;32.70;91.70
20700;DHT22;10511;51.232;9.420;2023-07-09T12:18:49;32.80;90.30
20700;DHT22;10511;51.232;9.420;2023-07-09T12:21:18;32.90;91.20
20700;DHT22;10511;51.232;9.420;2023-07-09T12:23:45;32.90;90.40
20700;DHT22;10511;51.232;9.420;2023-07-09T12:26:15;33.10;90.20
20700;DHT22;10511;51.232;9.420;2023-07-09T12:28:42;32.90;88.80
20700;DHT22;10511;51.232;9.420;2023-07-09T12:31:14;32.90;91.20
20700;DHT22;10511;51.232;9.420;2023-07-09T12:33:47;33.00;90.90
20700;DHT22;10511;51.232;9.420;2023-07-09T12:36:18;33.10;89.20
20700;DHT22;10511;51.232;9.420;2023-07-09T12:38:47;33.00;89.60
20700;DHT22;10511;51.232;9.420;2023-07-09T12:41:19;33.20;87.10
20700;DHT22;10511;51.232;9.420;2023-07-09T12:43:47;33.30;84.50
20700;DHT22;10511;51.232;9.420;2023-07-09T12:46:15;33.20;88.30
20700;DHT22;10511;51.232;9.420;2023-07-09T12:48:42;33.20;87.10
20700;DHT22;10511;51.232;9.420;2023-07-09T12:51:09;33.30;86.30
20700;DHT22;10511;51.232;9.420;2023-07-09T12:53:39;33.60;87.00
20700;DHT22;10511;51.232;9.420;2023-07-09T12:56:12;33.60;86.60
20700;DHT22;10511;51.232;9.420;2023-07-09T12:58:40;33.80;85.70
20700;DHT22;10511;51.232;9.420;2023-07-09T13:01:14;33.90;85.70
20700;DHT22;10511;51.232;9.420;2023-07-09T13:03:41;33.90;81.00
20700;DHT22;10511;51.232;9.420;2023-07-09T13:06:26;34.10;81.20
20700;DHT22;10511;51.232;9.420;2023-07-09T13:08:57;34.10;78.20
20700;DHT22;10511;51.232;9.420;2023-07-09T13:11:25;33.90;78.10
20700;DHT22;10511;51.232;9.420;2023-07-09T13:13:56;33.80;76.80
20700;DHT22;10511;51.232;9.420;2023-07-09T13:16:23;33.80;78.30
20700;DHT22;10511;51.232;9.420;2023-07-09T13:18:50;34.00;77.50
20700;DHT22;10511;51.232;9.420;2023-07-09T13:21:19;34.00;76.90
20700;DHT22;10511;51.232;9.420;2023-07-09T13:23:46;34.00;78.10
20700;DHT22;10511;51.232;9.420;2023-07-09T13:26:15;34.10;81.80
20700;DHT22;10511;51.232;9.420;2023-07-09T13:28:43;34.00;81.40
20700;DHT22;10511;51.232;9.420;2023-07-09T13:31:13;33.90;79.40
20700;DHT22;10511;51.232;9.420;2023-07-09T13:33:41;34.10;79.40
20700;DHT22;10511;51.232;9.420;2023-07-09T13:36:08;34.20;77.10
20700;DHT22;10511;51.232;9.420;2023-07-09T13:38:35;34.40;78.30
20700;DHT22;10511;51.232;9.420;2023-07-09T13:41:10;34.40;74.80
20700;DHT22;10511;51.232;9.420;2023-07-09T13:43:42;34.20;73.00
20700;DHT22;10511;51.232;9.420;2023-07-09T13:46:10;34.30;73.70
20700;DHT22;10511;51.232;9.420;2023-07-09T13:48:40;34.30;73.10
20700;DHT22;10511;51.232;9.420;2023-07-09T13:51:14;34.50;76.90
20700;DHT22;10511;51.232;9.420;2023-07-09T13:53:42;34.50;73.60
20700;DHT22;10511;51.232;9.420;2023-07-09T13:56:08;34.70;72.10
20700;DHT22;10511;51.232;9.420;2023-07-09T13:58:35;34.80;72.20
20700;DHT22;10511;51.232;9.420;2023-07-09T14:01:11;34.90;71.20
20700;DHT22;10511;51.232;9.420;2023-07-09T14:03:38;34.90;72.40
20700;DHT22;10511;51.232;9.420;2023-07-09T14:06:05;34.70;68.70
20700;DHT22;10511;51.232;9.420;2023-07-09T14:08:32;34.60;72.40
20700;DHT22;10511;51.232;9.420;2023-07-09T14:10:59;34.60;72.50
20700;DHT22;10511;51.232;9.420;2023-07-09T14:13:26;34.60;71.60
20700;DHT22;10511;51.232;9.420;2023-07-09T14:15:53;34.20;73.30
20700;DHT22;10511;51.232;9.420;2023-07-09T14:18:22;34.10;74.70
20700;DHT22;10511;51.232;9.420;2023-07-09T14:20:50;34.00;74.80
20700;DHT22;10511;51.232;9.420;2023-07-09T14:23:18;34.00;73.10
20700;DHT22;10511;51.232;9.420;2023-07-09T14:25:45;34.10;72.30
20700;DHT22;10511;51.232;9.420;2023-07-09T14:28:14;34.10;71.90
20700;DHT22;10511;51.232;9.420;2023-07-09T14:30:42;34.20;71.80
20700;DHT22;10511;51.232;9.420;2023-07-09T14:33:13;34.20;73.90
20700;DHT22;10511;51.232;9.420;2023-07-09T14:35:43;34.40;72.40
20700;DHT22;10511;51.232;9.420;2023-07-09T14:38:16;34.50;70.70
20700;DHT22;10511;51.232;9.420;2023-07-09T14:40:44;34.60;71.70
20700;DHT22;10511;51.232;9.420;2023-07-09T14:43:11;34.50;69.70
20700;DHT22;10511;51.232;9.420;2023-07-09T14:45:38;34.50;67.50
20700;DHT22;10511;51.232;9.420;2023-07-09T14:48:09;34.20;70.60
20700;DHT22;10511;51.232;9.420;2023-07-09T14:50:37;34.10;71.20
20700;DHT22;10511;51.232;9.420;2023-07-09T14:53:09;33.90;69.20
20700;DHT22;10511;51.232;9.420;2023-07-09T14:55:37;33.70;74.20
20700;DHT22;10511;51.232;9.420;2023-07-09T14:58:11;33.50;68.90
20700;DHT22;10511;51.232;9.420;2023-07-09T15:00:40;33.50;68.70
20700;DHT22;10511;51.232;9.420;2023-07-09T15:03:10;33.30;79.30
20700;DHT22;10511;51.232;9.420;2023-07-09T15:05:37;33.30;78.80
20700;DHT22;10511;51.232;9.420;2023-07-09T15:08:12;33.10;80.60
20700;DHT22;10511;51.232;9.420;2023-07-09T15:10:40;33.10;74.60
20700;DHT22;10511;51.232;9.420;2023-07-09T15:13:15;33.10;72.10
20700;DHT22;10511;51.232;9.420;2023-07-09T15:15:43;33.10;72.10
20700;DHT22;10511;51.232;9.420;2023-07-09T15:18:11;33.10;78.00
20700;DHT22;10511;51.232;9.420;2023-07-09T15:20:38;32.90;74.50
20700;DHT22;10511;51.232;9.420;2023-07-09T15:23:07;32.90;75.60
20700;DHT22;10511;51.232;9.420;2023-07-09T15:25:36;32.80;72.90
20700;DHT22;10511;51.232;9.420;2023-07-09T15:28:03;32.90;70.40
20700;DHT22;10511;51.232;9.420;2023-07-09T15:30:31;33.00;82.00
20700;DHT22;10511;51.232;9.420;2023-07-09T15:32:59;33.00;72.30
20700;DHT22;10511;51.232;9.420;2023-07-09T15:35:31;33.20;72.90
20700;DHT22;10511;51.232;9.420;2023-07-09T15:37:58;33.30;69.70
20700;DHT22;10511;51.232;9.420;2023-07-09T15:40:27;33.30;70.40
20700;DHT22;10511;51.232;9.420;2023-07-09T15:43:08;33.30;68.20
20700;DHT22;10511;51.232;9.420;2023-07-09T15:45:40;33.30;68.40